CST,Max TemperatureF,Mean TemperatureF,Min TemperatureF,Max Dew PointF,MeanDew PointF,Min DewpointF,Max Humidity, Mean Humidity, Min Humidity, Max Sea Level PressureIn, Mean Sea Level PressureIn, Min Sea Level PressureIn, Max VisibilityMiles, Mean VisibilityMiles, Min VisibilityMiles, Max Wind SpeedMPH, Mean Wind SpeedMPH, Max Gust SpeedMPH,PrecipitationIn, CloudCover, Events, WindDirDegrees
2012-11-1,84,71,60,68,63,57,100,85,44,30.09,30.03,29.94,10,7,0,9,1,,0.00,4,Fog,186
2012-11-2,82,72,62,68,62,56,100,77,39,30.05,29.98,29.90,10,9,4,10,3,16,0.00,3,,160
2012-11-3,84,73,62,68,62,55,97,77,37,30.07,30.00,29.94,10,10,6,10,3,,0.00,3,,126
2012-11-4,82,72,62,65,62,56,100,80,45,30.10,30.06,30.00,10,8,1,15,4,23,0.39,3,Rain-Thunderstorm,318
2012-11-5,84,72,59,66,60,52,96,70,41,30.06,30.01,29.92,10,8,4,8,2,,0.03,1,Rain,178
2012-11-6,75,65,54,51,44,38,90,51,27,30.19,30.11,30.06,10,10,10,8,3,,0.00,0,,63
2012-11-7,81,66,50,55,51,47,93,67,34,30.18,30.11,30.04,10,10,10,4,1,,0.00,0,,127
2012-11-8,82,68,54,63,56,49,97,70,31,30.13,30.05,29.98,10,10,7,16,4,28,0.00,0,,150
2012-11-9,82,70,57,64,60,55,100,74,39,30.08,30.01,29.93,10,10,8,16,5,28,0.00,2,,154
2012-11-10,81,71,61,65,62,56,100,76,42,30.03,29.94,29.85,10,10,10,18,11,25,0.00,2,,155
2012-11-11,81,72,64,66,58,31,100,67,25,30.14,29.91,29.83,10,10,10,17,7,23,0.00,4,,342
2012-11-12,64,58,51,35,27,16,50,32,16,30.47,30.36,30.17,10,10,10,14,10,23,0.00,4,,28
2012-11-13,53,50,48,36,28,21,59,43,30,30.49,30.40,30.33,10,10,10,10,7,17,0.00,7,Rain,58
2012-11-14,60,54,46,43,36,33,86,52,38,30.42,30.34,30.28,10,10,10,6,2,,0.00,7,,53
2012-11-15,61,53,45,45,39,34,93,57,38,30.31,30.26,30.22,10,10,10,7,2,,0.00,8,,65
2012-11-16,69,62,51,39,35,29,51,40,30,30.36,30.30,30.25,10,10,10,13,5,18,0.00,4,,53
2012-11-17,68,56,45,42,34,28,74,48,24,30.38,30.31,30.26,10,10,5,8,3,,0.00,0,,68
2012-11-18,73,59,45,53,48,41,93,67,41,30.29,30.23,30.17,10,10,6,12,4,18,0.00,2,,121
2012-11-19,71,63,55,58,55,52,96,78,59,30.25,30.19,30.14,10,10,8,8,3,,0.00,6,,123
2012-11-20,80,66,52,59,56,50,97,77,45,30.22,30.17,30.10,10,8,5,8,1,,0.00,0,,191
2012-11-21,78,66,54,59,55,51,97,75,40,30.26,30.19,30.14,10,9,6,7,1,,0.00,0,,129
2012-11-22,78,64,50,61,54,48,100,85,45,30.16,30.12,30.04,10,5,0,13,3,21,0.00,2,Fog,154
2012-11-23,73,65,57,61,51,31,96,66,33,30.36,30.24,30.11,10,9,4,18,4,25,0.00,4,,12
2012-11-24,64,55,44,38,27,20,79,37,19,30.41,30.29,30.17,10,10,10,15,7,20,0.00,4,,42
2012-11-25,73,57,41,58,49,35,90,70,47,30.15,30.04,29.94,10,10,10,14,3,20,0.00,3,,187
2012-11-26,77,68,59,63,61,54,100,87,58,30.12,29.99,29.92,10,6,0,15,3,23,0.06,6,Fog-Rain,223
2012-11-27,64,57,48,50,41,35,83,58,41,30.38,30.29,30.13,10,10,4,15,9,22,0.04,1,Rain,32
2012-11-28,66,52,37,46,42,36,97,73,45,30.45,30.35,30.28,10,10,7,9,3,,0.00,0,,78
2012-11-29,70,56,42,59,49,39,97,78,55,30.29,30.20,30.12,10,8,4,7,1,,0.00,4,,140
2012-11-30,78,68,57,63,60,57,100,89,52,30.18,30.13,30.04,10,6,0,12,1,18,0.00,6,Fog,159